sensor_id;sensor_type;location;lat;lon;timestamp;temperature;humidity
8420;DHT22;4247;48.550;8.822;2023-10-31T00:00:06;11.60;99.90
8420;DHT22;4247;48.550;8.822;2023-10-31T00:02:37;11.50;99.90
8420;DHT22;4247;48.550;8.822;2023-10-31T00:05:04;11.50;99.90
8420;DHT22;4247;48.550;8.822;2023-10-31T00:07:33;11.50;99.90
8420;DHT22;4247;48.550;8.822;2023-10-31T00:10:00;11.40;99.90
8420;DHT22;4247;48.550;8.822;2023-10-31T00:12:26;11.40;99.90
8420;DHT22;4247;48.550;8.822;2023-10-31T00:14:53;11.40;99.90
8420;DHT22;4247;48.550;8.822;2023-10-31T00:17:20;11.30;99.90
8420;DHT22;4247;48.550;8.822;2023-10-31T00:19:47;11.30;99.90
8420;DHT22;4247;48.550;8.822;2023-10-31T00:22:14;11.30;99.90
8420;DHT22;4247;48.550;8.822;2023-10-31T00:24:42;11.30;99.90
8420;DHT22;4247;48.550;8.822;2023-10-31T00:27:09;11.30;99.90
8420;DHT22;4247;48.550;8.822;2023-10-31T00:29:36;11.30;99.90
8420;DHT22;4247;48.550;8.822;2023-10-31T00:32:03;11.30;99.90
8420;DHT22;4247;48.550;8.822;2023-10-31T00:34:30;11.30;99.90
8420;DHT22;4247;48.550;8.822;2023-10-31T00:36:56;11.30;99.90
8420;DHT22;4247;48.550;8.822;2023-10-31T00:39:23;11.30;99.90
8420;DHT22;4247;48.550;8.822;2023-10-31T00:41:52;11.30;99.90
8420;DHT22;4247;48.550;8.822;2023-10-31T00:44:18;11.30;99.90
8420;DHT22;4247;48.550;8.822;2023-10-31T00:46:45;11.20;99.90
8420;DHT22;4247;48.550;8.822;2023-10-31T00:49:12;11.20;99.90
8420;DHT22;4247;48.550;8.822;2023-10-31T00:51:39;11.20;99.90
8420;DHT22;4247;48.550;8.822;2023-10-31T00:54:06;11.10;99.90
8420;DHT22;4247;48.550;8.822;2023-10-31T00:56:33;11.00;99.90
8420;DHT22;4247;48.550;8.822;2023-10-31T00:59:01;11.00;99.90
8420;DHT22;4247;48.550;8.822;2023-10-31T01:01:28;10.80;99.90
8420;DHT22;4247;48.550;8.822;2023-10-31T01:03:55;10.80;99.90
8420;DHT22;4247;48.550;8.822;2023-10-31T01:06:21;10.70;99.90
8420;DHT22;4247;48.550;8.822;2023-10-31T01:08:48;10.60;99.90
8420;DHT22;4247;48.550;8.822;2023-10-31T01:11:15;10.50;99.90
8420;DHT22;4247;48.550;8.822;2023-10-31T01:13:42;10.50;99.90
8420;DHT22;4247;48.550;8.822;2023-10-31T01:16:10;10.40;99.90
8420;DHT22;4247;48.550;8.822;2023-10-31T01:18:37;10.40;99.90
8420;DHT22;4247;48.550;8.822;2023-10-31T01:21:04;10.40;99.90
8420;DHT22;4247;48.550;8.822;2023-10-31T01:23:31;10.40;99.90
8420;DHT22;4247;48.550;8.822;2023-10-31T01:25:57;10.40;99.90
8420;DHT22;4247;48.550;8.822;2023-10-31T01:28:24;10.40;99.90
8420;DHT22;4247;48.550;8.822;2023-10-31T01:30:52;10.40;99.90
8420;DHT22;4247;48.550;8.822;2023-10-31T01:33:21;10.40;99.90
8420;DHT22;4247;48.550;8.822;2023-10-31T01:35:47;10.50;99.90
8420;DHT22;4247;48.550;8.822;2023-10-31T01:38:14;10.50;99.90
8420;DHT22;4247;48.550;8.822;2023-10-31T01:40:41;10.50;99.90
8420;DHT22;4247;48.550;8.822;2023-10-31T01:43:08;10.60;99.90
8420;DHT22;4247;48.550;8.822;2023-10-31T01:45:35;10.60;99.90
8420;DHT22;4247;48.550;8.822;2023-10-31T01:48:02;10.60;99.90
8420;DHT22;4247;48.550;8.822;2023-10-31T01:50:31;10.60;99.90
8420;DHT22;4247;48.550;8.822;2023-10-31T01:52:58;10.70;99.90
8420;DHT22;4247;48.550;8.822;2023-10-31T01:55:25;10.70;99.90
8420;DHT22;4247;48.550;8.822;2023-10-31T01:57:53;10.80;99.90
8420;DHT22;4247;48.550;8.822;2023-10-31T02:00:21;10.80;99.90
8420;DHT22;4247;48.550;8.822;2023-10-31T02:02:48;10.80;99.90
8420;DHT22;4247;48.550;8.822;2023-10-31T02:05:15;10.80;99.90
8420;DHT22;4247;48.550;8.822;2023-10-31T02:07:44;10.80;99.90
8420;DHT22;4247;48.550;8.822;2023-10-31T02:10:12;10.80;99.90
8420;DHT22;4247;48.550;8.822;2023-10-31T02:12:39;10.80;99.90
8420;DHT22;4247;48.550;8.822;2023-10-31T02:15:07;10.80;99.90
8420;DHT22;4247;48.550;8.822;2023-10-31T02:17:34;10.80;99.90
8420;DHT22;4247;48.550;8.822;2023-10-31T02:20:01;10.80;99.90
8420;DHT22;4247;48.550;8.822;2023-10-31T02:22:29;10.80;99.90
8420;DHT22;4247;48.550;8.822;2023-10-31T02:24:56;10.80;99.90
8420;DHT22;4247;48.550;8.822;2023-10-31T02:27:23;10.80;99.90
8420;DHT22;4247;48.550;8.822;2023-10-31T02:29:50;10.80;99.90
8420;DHT22;4247;48.550;8.822;2023-10-31T02:32:17;10.90;99.90
8420;DHT22;4247;48.550;8.822;2023-10-31T02:34:44;10.80;99.90
8420;DHT22;4247;48.550;8.822;2023-10-31T02:37:11;10.80;99.90
8420;DHT22;4247;48.550;8.822;2023-10-31T02:39:40;10.80;99.90
8420;DHT22;4247;48.550;8.822;2023-10-31T02:42:07;10.80;99.90
8420;DHT22;4247;48.550;8.822;2023-10-31T02:44:34;10.70;99.90
8420;DHT22;4247;48.550;8.822;2023-10-31T02:47:00;10.70;99.90
8420;DHT22;4247;48.550;8.822;2023-10-31T02:49:27;10.60;99.90
8420;DHT22;4247;48.550;8.822;2023-10-31T02:51:54;10.60;99.90
8420;DHT22;4247;48.550;8.822;2023-10-31T02:54:21;10.50;99.90
8420;DHT22;4247;48.550;8.822;2023-10-31T02:56:49;10.50;99.90
8420;DHT22;4247;48.550;8.822;2023-10-31T02:59:16;10.50;99.90
8420;DHT22;4247;48.550;8.822;2023-10-31T03:01:42;10.40;99.90
8420;DHT22;4247;48.550;8.822;2023-10-31T03:04:09;10.50;99.90
8420;DHT22;4247;48.550;8.822;2023-10-31T03:06:37;10.40;99.90
8420;DHT22;4247;48.550;8.822;2023-10-31T03:09:04;10.40;99.90
8420;DHT22;4247;48.550;8.822;2023-10-31T03:11:30;10.40;99.90
8420;DHT22;4247;48.550;8.822;2023-10-31T03:13:59;10.40;99.90
8420;DHT22;4247;48.550;8.822;2023-10-31T03:16:26;10.30;99.90
8420;DHT22;4247;48.550;8.822;2023-10-31T03:18:53;10.30;99.90
8420;DHT22;4247;48.550;8.822;2023-10-31T03:21:20;10.30;99.90
8420;DHT22;4247;48.550;8.822;2023-10-31T03:23:49;10.30;99.90
8420;DHT22;4247;48.550;8.822;2023-10-31T03:26:16;10.20;99.90
8420;DHT22;4247;48.550;8.822;2023-10-31T03:28:43;10.20;99.90
8420;DHT22;4247;48.550;8.822;2023-10-31T03:31:12;10.20;99.90
8420;DHT22;4247;48.550;8.822;2023-10-31T03:33:40;10.20;99.90
8420;DHT22;4247;48.550;8.822;2023-10-31T03:36:07;10.20;99.90
8420;DHT22;4247;48.550;8.822;2023-10-31T03:38:35;10.20;99.90
8420;DHT22;4247;48.550;8.822;2023-10-31T03:41:02;10.10;99.90
8420;DHT22;4247;48.550;8.822;2023-10-31T03:43:29;10.10;99.90
8420;DHT22;4247;48.550;8.822;2023-10-31T03:45:55;10.20;99.90
8420;DHT22;4247;48.550;8.822;2023-10-31T03:48:24;10.10;99.90
8420;DHT22;4247;48.550;8.822;2023-10-31T03:50:51;10.10;99.90
8420;DHT22;4247;48.550;8.822;2023-10-31T03:53:18;10.10;99.90
8420;DHT22;4247;48.550;8.822;2023-10-31T03:55:44;10.00;99.90
8420;DHT22;4247;48.550;8.822;2023-10-31T03:58:11;10.00;99.90
8420;DHT22;4247;48.550;8.822;2023-10-31T04:00:39;10.00;99.90
8420;DHT22;4247;48.550;8.822;2023-10-31T04:03:06;10.00;99.90
8420;DHT22;4247;48.550;8.822;2023-10-31T04:05:35;9.90;99.90
8420;DHT22;4247;48.550;8.822;2023-10-31T04:08:03;9.90;99.90
8420;DHT22;4247;48.550;8.822;2023-10-31T04:10:29;9.90;99.90
8420;DHT22;4247;48.550;8.822;2023-10-31T04:12:56;10.00;99.90
8420;DHT22;4247;48.550;8.822;2023-10-31T04:15:23;9.90;99.90
8420;DHT22;4247;48.550;8.822;2023-10-31T04:17:50;9.90;99.90
8420;DHT22;4247;48.550;8.822;2023-10-31T04:20:17;9.90;99.90
8420;DHT22;4247;48.550;8.822;2023-10-31T04:22:45;9.90;99.90
8420;DHT22;4247;48.550;8.822;2023-10-31T04:25:12;9.90;99.90
8420;DHT22;4247;48.550;8.822;2023-10-31T04:27:38;9.80;99.90
8420;DHT22;4247;48.550;8.822;2023-10-31T04:30:06;9.80;99.90
8420;DHT22;4247;48.550;8.822;2023-10-31T04:32:33;9.80;99.90
8420;DHT22;4247;48.550;8.822;2023-10-31T04:35:00;9.80;99.90
8420;DHT22;4247;48.550;8.822;2023-10-31T04:37:27;9.80;99.90
8420;DHT22;4247;48.550;8.822;2023-10-31T04:39:55;9.80;99.90
8420;DHT22;4247;48.550;8.822;2023-10-31T04:42:22;9.70;99.90
8420;DHT22;4247;48.550;8.822;2023-10-31T04:44:49;9.70;99.90
8420;DHT22;4247;48.550;8.822;2023-10-31T04:47:15;9.70;99.90
8420;DHT22;4247;48.550;8.822;2023-10-31T04:49:42;9.70;99.90
8420;DHT22;4247;48.550;8.822;2023-10-31T04:52:09;9.70;99.90
8420;DHT22;4247;48.550;8.822;2023-10-31T04:54:37;9.60;99.90
8420;DHT22;4247;48.550;8.822;2023-10-31T04:57:05;9.60;99.90
8420;DHT22;4247;48.550;8.822;2023-10-31T04:59:32;9.50;99.90
8420;DHT22;4247;48.550;8.822;2023-10-31T05:01:59;9.50;99.90
8420;DHT22;4247;48.550;8.822;2023-10-31T05:04:26;9.50;99.90
8420;DHT22;4247;48.550;8.822;2023-10-31T05:06:52;9.50;99.90
8420;DHT22;4247;48.550;8.822;2023-10-31T05:09:19;9.50;99.90
8420;DHT22;4247;48.550;8.822;2023-10-31T05:11:46;9.40;99.90
8420;DHT22;4247;48.550;8.822;2023-10-31T05:14:15;9.40;99.90
8420;DHT22;4247;48.550;8.822;2023-10-31T05:16:42;9.40;99.90
8420;DHT22;4247;48.550;8.822;2023-10-31T05:19:09;9.40;99.90
8420;DHT22;4247;48.550;8.822;2023-10-31T05:21:36;9.30;99.90
8420;DHT22;4247;48.550;8.822;2023-10-31T05:24:02;9.30;99.90
8420;DHT22;4247;48.550;8.822;2023-10-31T05:26:29;9.40;99.90
8420;DHT22;4247;48.550;8.822;2023-10-31T05:28:56;9.30;99.90
8420;DHT22;4247;48.550;8.822;2023-10-31T05:31:25;9.30;99.90
8420;DHT22;4247;48.550;8.822;2023-10-31T05:33:52;9.20;99.90
8420;DHT22;4247;48.550;8.822;2023-10-31T05:36:19;9.30;99.90
8420;DHT22;4247;48.550;8.822;2023-10-31T05:38:46;9.20;99.90
8420;DHT22;4247;48.550;8.822;2023-10-31T05:41:13;9.20;99.90
8420;DHT22;4247;48.550;8.822;2023-10-31T05:43:40;9.20;99.90
8420;DHT22;4247;48.550;8.822;2023-10-31T05:46:08;9.20;99.90
8420;DHT22;4247;48.550;8.822;2023-10-31T05:48:38;9.20;99.90
8420;DHT22;4247;48.550;8.822;2023-10-31T05:51:11;9.20;99.90
8420;DHT22;4247;48.550;8.822;2023-10-31T05:53:39;9.10;99.90
8420;DHT22;4247;48.550;8.822;2023-10-31T05:56:07;9.10;99.90
8420;DHT22;4247;48.550;8.822;2023-10-31T05:58:34;9.10;99.90
8420;DHT22;4247;48.550;8.822;2023-10-31T06:01:01;9.10;99.90
8420;DHT22;4247;48.550;8.822;2023-10-31T06:03:28;9.10;99.90
8420;DHT22;4247;48.550;8.822;2023-10-31T06:05:57;9.10;99.90
8420;DHT22;4247;48.550;8.822;2023-10-31T06:08:23;9.10;99.90
8420;DHT22;4247;48.550;8.822;2023-10-31T06:10:53;9.00;99.90
8420;DHT22;4247;48.550;8.822;2023-10-31T06:13:20;9.10;99.90
8420;DHT22;4247;48.550;8.822;2023-10-31T06:15:47;9.10;99.90
8420;DHT22;4247;48.550;8.822;2023-10-31T06:18:14;9.10;99.90
8420;DHT22;4247;48.550;8.822;2023-10-31T06:20:41;9.10;99.90
8420;DHT22;4247;48.550;8.822;2023-10-31T06:23:09;9.20;99.90
8420;DHT22;4247;48.550;8.822;2023-10-31T06:25:36;9.20;99.90
8420;DHT22;4247;48.550;8.822;2023-10-31T06:28:03;9.20;99.90
8420;DHT22;4247;48.550;8.822;2023-10-31T06:30:30;9.30;99.90
8420;DHT22;4247;48.550;8.822;2023-10-31T06:32:57;9.30;99.90
8420;DHT22;4247;48.550;8.822;2023-10-31T06:35:24;9.30;99.90
8420;DHT22;4247;48.550;8.822;2023-10-31T06:37:54;9.30;99.90
8420;DHT22;4247;48.550;8.822;2023-10-31T06:40:23;9.30;99.90
8420;DHT22;4247;48.550;8.822;2023-10-31T06:42:50;9.40;99.90
8420;DHT22;4247;48.550;8.822;2023-10-31T06:45:17;9.40;99.90
8420;DHT22;4247;48.550;8.822;2023-10-31T06:47:43;9.40;99.90
8420;DHT22;4247;48.550;8.822;2023-10-31T06:50:10;9.40;99.90
8420;DHT22;4247;48.550;8.822;2023-10-31T06:52:37;9.50;99.90
8420;DHT22;4247;48.550;8.822;2023-10-31T06:55:05;9.50;99.90
8420;DHT22;4247;48.550;8.822;2023-10-31T06:57:33;9.50;99.90
8420;DHT22;4247;48.550;8.822;2023-10-31T07:00:00;9.50;99.90
8420;DHT22;4247;48.550;8.822;2023-10-31T07:02:27;9.60;99.90
8420;DHT22;4247;48.550;8.822;2023-10-31T07:04:53;9.60;99.90
8420;DHT22;4247;48.550;8.822;2023-10-31T07:07:20;9.70;99.90
8420;DHT22;4247;48.550;8.822;2023-10-31T07:09:47;9.60;99.90
8420;DHT22;4247;48.550;8.822;2023-10-31T07:12:15;9.60;99.90
8420;DHT22;4247;48.550;8.822;2023-10-31T07:14:43;9.70;99.90
8420;DHT22;4247;48.550;8.822;2023-10-31T07:17:10;9.70;99.90
8420;DHT22;4247;48.550;8.822;2023-10-31T07:19:37;9.70;99.90
8420;DHT22;4247;48.550;8.822;2023-10-31T07:22:02;9.80;99.90
8420;DHT22;4247;48.550;8.822;2023-10-31T07:24:29;9.80;99.90
8420;DHT22;4247;48.550;8.822;2023-10-31T07:26:56;9.80;99.90
8420;DHT22;4247;48.550;8.822;2023-10-31T07:29:23;9.90;99.90
8420;DHT22;4247;48.550;8.822;2023-10-31T07:31:51;9.90;99.90
8420;DHT22;4247;48.550;8.822;2023-10-31T07:34:18;9.90;99.90
8420;DHT22;4247;48.550;8.822;2023-10-31T07:36:45;10.00;99.90
8420;DHT22;4247;48.550;8.822;2023-10-31T07:39:12;10.00;99.90
8420;DHT22;4247;48.550;8.822;2023-10-31T07:41:39;10.10;99.90
8420;DHT22;4247;48.550;8.822;2023-10-31T07:44:06;10.10;99.90
8420;DHT22;4247;48.550;8.822;2023-10-31T07:46:33;10.20;99.90
8420;DHT22;4247;48.550;8.822;2023-10-31T07:49:01;10.20;99.90
8420;DHT22;4247;48.550;8.822;2023-10-31T07:51:28;10.20;99.90
8420;DHT22;4247;48.550;8.822;2023-10-31T07:53:55;10.30;99.90
8420;DHT22;4247;48.550;8.822;2023-10-31T07:56:23;10.40;99.90
8420;DHT22;4247;48.550;8.822;2023-10-31T07:58:51;10.40;99.90
8420;DHT22;4247;48.550;8.822;2023-10-31T08:01:18;10.40;99.90
8420;DHT22;4247;48.550;8.822;2023-10-31T08:03:45;10.40;99.90
8420;DHT22;4247;48.550;8.822;2023-10-31T08:06:14;10.40;99.90
8420;DHT22;4247;48.550;8.822;2023-10-31T08:08:41;10.40;99.90
8420;DHT22;4247;48.550;8.822;2023-10-31T08:11:08;10.50;99.90
8420;DHT22;4247;48.550;8.822;2023-10-31T08:13:34;10.50;99.90
8420;DHT22;4247;48.550;8.822;2023-10-31T08:16:00;10.60;99.90
8420;DHT22;4247;48.550;8.822;2023-10-31T08:18:27;10.60;99.90
8420;DHT22;4247;48.550;8.822;2023-10-31T08:20:54;10.60;99.90
8420;DHT22;4247;48.550;8.822;2023-10-31T08:23:22;10.60;99.90
8420;DHT22;4247;48.550;8.822;2023-10-31T08:25:49;10.60;99.90
8420;DHT22;4247;48.550;8.822;2023-10-31T08:28:16;10.70;99.90
8420;DHT22;4247;48.550;8.822;2023-10-31T08:30:43;10.70;99.90
8420;DHT22;4247;48.550;8.822;2023-10-31T08:33:10;10.70;99.90
8420;DHT22;4247;48.550;8.822;2023-10-31T08:35:37;10.80;99.90
8420;DHT22;4247;48.550;8.822;2023-10-31T08:38:04;10.80;99.90
8420;DHT22;4247;48.550;8.822;2023-10-31T08:40:32;10.90;99.90
8420;DHT22;4247;48.550;8.822;2023-10-31T08:42:59;10.90;99.90
8420;DHT22;4247;48.550;8.822;2023-10-31T08:45:26;11.00;99.90
8420;DHT22;4247;48.550;8.822;2023-10-31T08:47:53;11.00;99.90
8420;DHT22;4247;48.550;8.822;2023-10-31T08:50:19;11.10;99.90
8420;DHT22;4247;48.550;8.822;2023-10-31T08:52:46;11.10;99.90
8420;DHT22;4247;48.550;8.822;2023-10-31T08:55:13;11.20;99.90
8420;DHT22;4247;48.550;8.822;2023-10-31T08:57:42;11.20;99.90
8420;DHT22;4247;48.550;8.822;2023-10-31T09:00:09;11.20;99.90
8420;DHT22;4247;48.550;8.822;2023-10-31T09:02:36;11.20;99.90
8420;DHT22;4247;48.550;8.822;2023-10-31T09:05:03;11.20;99.90
8420;DHT22;4247;48.550;8.822;2023-10-31T09:07:30;11.20;99.90
8420;DHT22;4247;48.550;8.822;2023-10-31T09:09:57;11.20;99.90
8420;DHT22;4247;48.550;8.822;2023-10-31T09:12:24;11.20;99.90
8420;DHT22;4247;48.550;8.822;2023-10-31T09:14:53;11.30;99.90
8420;DHT22;4247;48.550;8.822;2023-10-31T09:17:19;11.20;99.90
8420;DHT22;4247;48.550;8.822;2023-10-31T09:19:46;11.30;99.90
8420;DHT22;4247;48.550;8.822;2023-10-31T09:22:13;11.30;99.90
8420;DHT22;4247;48.550;8.822;2023-10-31T09:24:40;11.30;99.90
8420;DHT22;4247;48.550;8.822;2023-10-31T09:27:08;11.30;99.90
8420;DHT22;4247;48.550;8.822;2023-10-31T09:29:36;11.30;99.90
8420;DHT22;4247;48.550;8.822;2023-10-31T09:32:06;11.40;99.90
8420;DHT22;4247;48.550;8.822;2023-10-31T09:34:33;11.60;99.90
8420;DHT22;4247;48.550;8.822;2023-10-31T09:36:59;11.60;99.90
8420;DHT22;4247;48.550;8.822;2023-10-31T09:39:26;11.60;99.90
8420;DHT22;4247;48.550;8.822;2023-10-31T09:41:54;11.70;99.90
8420;DHT22;4247;48.550;8.822;2023-10-31T09:44:21;11.80;99.90
8420;DHT22;4247;48.550;8.822;2023-10-31T09:46:48;11.80;99.90
8420;DHT22;4247;48.550;8.822;2023-10-31T09:49:16;11.90;99.90
8420;DHT22;4247;48.550;8.822;2023-10-31T09:51:43;12.00;99.90
8420;DHT22;4247;48.550;8.822;2023-10-31T09:54:14;12.10;99.90
8420;DHT22;4247;48.550;8.822;2023-10-31T09:56:42;12.20;99.90
8420;DHT22;4247;48.550;8.822;2023-10-31T09:59:09;12.20;99.90
8420;DHT22;4247;48.550;8.822;2023-10-31T10:01:36;12.20;99.90
8420;DHT22;4247;48.550;8.822;2023-10-31T10:04:04;12.20;99.90
8420;DHT22;4247;48.550;8.822;2023-10-31T10:06:33;12.20;99.90
8420;DHT22;4247;48.550;8.822;2023-10-31T10:09:00;12.30;99.90
8420;DHT22;4247;48.550;8.822;2023-10-31T10:11:29;12.30;99.90
8420;DHT22;4247;48.550;8.822;2023-10-31T10:13:57;12.20;99.90
8420;DHT22;4247;48.550;8.822;2023-10-31T10:16:31;12.30;99.90
8420;DHT22;4247;48.550;8.822;2023-10-31T10:19:14;12.40;99.90
8420;DHT22;4247;48.550;8.822;2023-10-31T10:21:48;12.40;99.90
8420;DHT22;4247;48.550;8.822;2023-10-31T10:24:16;12.40;99.90
8420;DHT22;4247;48.550;8.822;2023-10-31T10:26:43;12.50;99.90
8420;DHT22;4247;48.550;8.822;2023-10-31T10:29:09;12.60;99.90
8420;DHT22;4247;48.550;8.822;2023-10-31T10:31:36;12.60;99.90
8420;DHT22;4247;48.550;8.822;2023-10-31T10:34:03;12.60;99.90
8420;DHT22;4247;48.550;8.822;2023-10-31T10:36:32;12.60;99.90
8420;DHT22;4247;48.550;8.822;2023-10-31T10:39:00;12.70;99.90
8420;DHT22;4247;48.550;8.822;2023-10-31T10:41:29;12.70;99.90
8420;DHT22;4247;48.550;8.822;2023-10-31T10:43:57;12.90;99.90
8420;DHT22;4247;48.550;8.822;2023-10-31T10:46:27;12.90;99.90
8420;DHT22;4247;48.550;8.822;2023-10-31T10:48:56;12.90;99.90
8420;DHT22;4247;48.550;8.822;2023-10-31T10:51:29;12.90;99.90
8420;DHT22;4247;48.550;8.822;2023-10-31T10:54:07;12.90;99.90
8420;DHT22;4247;48.550;8.822;2023-10-31T10:56:38;13.00;99.90
8420;DHT22;4247;48.550;8.822;2023-10-31T10:59:11;13.00;99.90
8420;DHT22;4247;48.550;8.822;2023-10-31T11:01:41;13.00;99.90
8420;DHT22;4247;48.550;8.822;2023-10-31T11:04:09;13.00;99.90
8420;DHT22;4247;48.550;8.822;2023-10-31T11:06:37;13.00;99.90
8420;DHT22;4247;48.550;8.822;2023-10-31T11:09:06;13.10;99.90
8420;DHT22;4247;48.550;8.822;2023-10-31T11:11:33;13.20;99.90
8420;DHT22;4247;48.550;8.822;2023-10-31T11:14:01;13.30;99.90
8420;DHT22;4247;48.550;8.822;2023-10-31T11:16:32;13.30;99.90
8420;DHT22;4247;48.550;8.822;2023-10-31T11:19:00;13.30;99.90
8420;DHT22;4247;48.550;8.822;2023-10-31T11:21:28;13.40;99.90
8420;DHT22;4247;48.550;8.822;2023-10-31T11:23:58;13.40;99.90
8420;DHT22;4247;48.550;8.822;2023-10-31T11:26:27;13.30;99.90
8420;DHT22;4247;48.550;8.822;2023-10-31T11:29:03;13.30;99.90
8420;DHT22;4247;48.550;8.822;2023-10-31T11:31:31;13.30;99.90
8420;DHT22;4247;48.550;8.822;2023-10-31T11:33:58;13.30;99.90
8420;DHT22;4247;48.550;8.822;2023-10-31T11:36:26;13.30;99.90
8420;DHT22;4247;48.550;8.822;2023-10-31T11:39:10;13.40;99.90
8420;DHT22;4247;48.550;8.822;2023-10-31T11:41:40;13.40;99.90
8420;DHT22;4247;48.550;8.822;2023-10-31T11:44:07;13.50;99.90
8420;DHT22;4247;48.550;8.822;2023-10-31T11:46:33;13.50;99.90
8420;DHT22;4247;48.550;8.822;2023-10-31T11:49:01;13.50;99.90
8420;DHT22;4247;48.550;8.822;2023-10-31T11:51:30;13.50;99.90
8420;DHT22;4247;48.550;8.822;2023-10-31T11:53:59;13.50;99.90
8420;DHT22;4247;48.550;8.822;2023-10-31T11:56:26;13.50;99.90
8420;DHT22;4247;48.550;8.822;2023-10-31T11:58:58;13.50;99.90
8420;DHT22;4247;48.550;8.822;2023-10-31T12:01:25;13.40;99.90
8420;DHT22;4247;48.550;8.822;2023-10-31T12:03:52;13.50;99.90
8420;DHT22;4247;48.550;8.822;2023-10-31T12:06:19;13.50;99.90
8420;DHT22;4247;48.550;8.822;2023-10-31T12:08:47;13.60;99.90
8420;DHT22;4247;48.550;8.822;2023-10-31T12:11:16;13.60;99.90
8420;DHT22;4247;48.550;8.822;2023-10-31T12:13:53;13.50;99.90
8420;DHT22;4247;48.550;8.822;2023-10-31T12:16:25;13.60;99.90
8420;DHT22;4247;48.550;8.822;2023-10-31T12:18:55;13.50;99.90
8420;DHT22;4247;48.550;8.822;2023-10-31T12:21:39;13.50;99.90
8420;DHT22;4247;48.550;8.822;2023-10-31T12:24:08;13.50;99.90
8420;DHT22;4247;48.550;8.822;2023-10-31T12:26:36;13.40;99.90
8420;DHT22;4247;48.550;8.822;2023-10-31T12:29:07;13.40;99.90
8420;DHT22;4247;48.550;8.822;2023-10-31T12:31:39;13.40;99.90
8420;DHT22;4247;48.550;8.822;2023-10-31T12:34:06;13.40;99.90
8420;DHT22;4247;48.550;8.822;2023-10-31T12:36:34;13.50;99.90
8420;DHT22;4247;48.550;8.822;2023-10-31T12:39:02;13.60;99.90
8420;DHT22;4247;48.550;8.822;2023-10-31T12:41:29;13.60;99.90
8420;DHT22;4247;48.550;8.822;2023-10-31T12:43:56;13.70;99.90
8420;DHT22;4247;48.550;8.822;2023-10-31T12:46:27;13.80;99.90
8420;DHT22;4247;48.550;8.822;2023-10-31T12:48:56;13.80;99.90
8420;DHT22;4247;48.550;8.822;2023-10-31T12:51:23;13.80;99.90
8420;DHT22;4247;48.550;8.822;2023-10-31T12:53:50;13.80;99.90
8420;DHT22;4247;48.550;8.822;2023-10-31T12:56:37;13.90;99.90
8420;DHT22;4247;48.550;8.822;2023-10-31T12:59:05;14.00;99.90
8420;DHT22;4247;48.550;8.822;2023-10-31T13:01:33;13.90;99.90
8420;DHT22;4247;48.550;8.822;2023-10-31T13:04:02;13.90;99.90
8420;DHT22;4247;48.550;8.822;2023-10-31T13:06:29;13.90;99.90
8420;DHT22;4247;48.550;8.822;2023-10-31T13:08:56;13.80;99.90
8420;DHT22;4247;48.550;8.822;2023-10-31T13:11:23;13.80;99.90
8420;DHT22;4247;48.550;8.822;2023-10-31T13:13:51;13.70;99.90
8420;DHT22;4247;48.550;8.822;2023-10-31T13:16:19;13.60;99.90
8420;DHT22;4247;48.550;8.822;2023-10-31T13:18:46;13.60;99.90
8420;DHT22;4247;48.550;8.822;2023-10-31T13:21:14;13.50;99.90
8420;DHT22;4247;48.550;8.822;2023-10-31T13:23:43;13.50;99.90
8420;DHT22;4247;48.550;8.822;2023-10-31T13:26:11;13.50;99.90
8420;DHT22;4247;48.550;8.822;2023-10-31T13:28:38;13.40;99.90
8420;DHT22;4247;48.550;8.822;2023-10-31T13:31:06;13.40;99.90
8420;DHT22;4247;48.550;8.822;2023-10-31T13:33:33;13.40;99.90
8420;DHT22;4247;48.550;8.822;2023-10-31T13:36:01;13.40;99.90
8420;DHT22;4247;48.550;8.822;2023-10-31T13:38:31;13.30;99.90
8420;DHT22;4247;48.550;8.822;2023-10-31T13:40:58;13.30;99.90
8420;DHT22;4247;48.550;8.822;2023-10-31T13:43:26;13.30;99.90
8420;DHT22;4247;48.550;8.822;2023-10-31T13:45:53;13.30;99.90
8420;DHT22;4247;48.550;8.822;2023-10-31T13:48:20;13.30;99.90
8420;DHT22;4247;48.550;8.822;2023-10-31T13:50:47;13.20;99.90
8420;DHT22;4247;48.550;8.822;2023-10-31T13:53:15;13.20;99.90
8420;DHT22;4247;48.550;8.822;2023-10-31T13:55:43;13.20;99.90
8420;DHT22;4247;48.550;8.822;2023-10-31T13:58:10;13.10;99.90
8420;DHT22;4247;48.550;8.822;2023-10-31T14:00:37;13.00;99.90
8420;DHT22;4247;48.550;8.822;2023-10-31T14:03:04;13.00;99.90
8420;DHT22;4247;48.550;8.822;2023-10-31T14:05:30;12.80;99.90
8420;DHT22;4247;48.550;8.822;2023-10-31T14:07:57;12.80;99.90
8420;DHT22;4247;48.550;8.822;2023-10-31T14:10:25;12.60;99.90
8420;DHT22;4247;48.550;8.822;2023-10-31T14:12:54;12.60;99.90
8420;DHT22;4247;48.550;8.822;2023-10-31T14:15:21;12.60;99.90
8420;DHT22;4247;48.550;8.822;2023-10-31T14:17:48;12.60;99.90
8420;DHT22;4247;48.550;8.822;2023-10-31T14:20:15;12.60;99.90
8420;DHT22;4247;48.550;8.822;2023-10-31T14:22:47;12.60;99.90
8420;DHT22;4247;48.550;8.822;2023-10-31T14:25:14;12.60;99.90
8420;DHT22;4247;48.550;8.822;2023-10-31T14:27:41;12.60;99.90
8420;DHT22;4247;48.550;8.822;2023-10-31T14:30:10;12.60;99.90
8420;DHT22;4247;48.550;8.822;2023-10-31T14:32:37;12.60;99.90
8420;DHT22;4247;48.550;8.822;2023-10-31T14:35:05;12.60;99.90
8420;DHT22;4247;48.550;8.822;2023-10-31T14:37:33;12.60;99.90
8420;DHT22;4247;48.550;8.822;2023-10-31T14:40:01;12.60;99.90
8420;DHT22;4247;48.550;8.822;2023-10-31T14:42:29;12.60;99.90
8420;DHT22;4247;48.550;8.822;2023-10-31T14:44:56;12.60;99.90
8420;DHT22;4247;48.550;8.822;2023-10-31T14:47:24;12.50;99.90
8420;DHT22;4247;48.550;8.822;2023-10-31T14:49:51;12.50;99.90
8420;DHT22;4247;48.550;8.822;2023-10-31T14:52:18;12.50;99.90
8420;DHT22;4247;48.550;8.822;2023-10-31T14:54:45;12.40;99.90
8420;DHT22;4247;48.550;8.822;2023-10-31T14:57:13;12.40;99.90
8420;DHT22;4247;48.550;8.822;2023-10-31T14:59:40;12.30;99.90
8420;DHT22;4247;48.550;8.822;2023-10-31T15:02:07;12.30;99.90
8420;DHT22;4247;48.550;8.822;2023-10-31T15:04:35;12.30;99.90
8420;DHT22;4247;48.550;8.822;2023-10-31T15:07:03;12.30;99.90
8420;DHT22;4247;48.550;8.822;2023-10-31T15:09:30;12.20;99.90
8420;DHT22;4247;48.550;8.822;2023-10-31T15:11:56;12.20;99.90
8420;DHT22;4247;48.550;8.822;2023-10-31T15:14:23;12.10;99.90
8420;DHT22;4247;48.550;8.822;2023-10-31T15:16:50;12.10;99.90
8420;DHT22;4247;48.550;8.822;2023-10-31T15:19:17;12.10;99.90
8420;DHT22;4247;48.550;8.822;2023-10-31T15:21:45;12.10;99.90
8420;DHT22;4247;48.550;8.822;2023-10-31T15:24:12;12.10;99.90
8420;DHT22;4247;48.550;8.822;2023-10-31T15:26:39;12.10;99.90
8420;DHT22;4247;48.550;8.822;2023-10-31T15:29:06;12.00;99.90
8420;DHT22;4247;48.550;8.822;2023-10-31T15:31:33;12.10;99.90
8420;DHT22;4247;48.550;8.822;2023-10-31T15:34:01;12.00;99.90
8420;DHT22;4247;48.550;8.822;2023-10-31T15:36:28;12.00;99.90
8420;DHT22;4247;48.550;8.822;2023-10-31T15:38:58;12.00;99.90
8420;DHT22;4247;48.550;8.822;2023-10-31T15:41:26;12.00;99.90
8420;DHT22;4247;48.550;8.822;2023-10-31T15:43:54;11.90;99.90
8420;DHT22;4247;48.550;8.822;2023-10-31T15:46:21;11.90;99.90
8420;DHT22;4247;48.550;8.822;2023-10-31T15:48:49;11.90;99.90
8420;DHT22;4247;48.550;8.822;2023-10-31T15:51:16;11.90;99.90
8420;DHT22;4247;48.550;8.822;2023-10-31T15:53:43;11.90;99.90
8420;DHT22;4247;48.550;8.822;2023-10-31T15:56:10;11.80;99.90
8420;DHT22;4247;48.550;8.822;2023-10-31T15:58:37;11.80;99.90
8420;DHT22;4247;48.550;8.822;2023-10-31T16:01:05;11.70;99.90
8420;DHT22;4247;48.550;8.822;2023-10-31T16:03:32;11.70;99.90
8420;DHT22;4247;48.550;8.822;2023-10-31T16:05:59;11.60;99.90